sensor_id;sensor_type;location;lat;lon;timestamp;P1;durP1;ratioP1;P2;durP2;ratioP2
41903;SDS011;27586;51.124;4.182;2022-12-29T00:01:30;2.72;;;2.10;;
41903;SDS011;27586;51.124;4.182;2022-12-29T00:03:56;2.58;;;2.00;;
41903;SDS011;27586;51.124;4.182;2022-12-29T00:06:21;3.47;;;1.90;;
41903;SDS011;27586;51.124;4.182;2022-12-29T00:08:47;1.75;;;1.65;;
41903;SDS011;27586;51.124;4.182;2022-12-29T00:11:14;2.42;;;1.85;;
41903;SDS011;27586;51.124;4.182;2022-12-29T00:13:45;1.90;;;1.80;;
41903;SDS011;27586;51.124;4.182;2022-12-29T00:16:29;1.75;;;1.65;;
41903;SDS011;27586;51.124;4.182;2022-12-29T00:18:56;2.83;;;1.67;;
41903;SDS011;27586;51.124;4.182;2022-12-29T00:21:26;1.92;;;1.48;;
41903;SDS011;27586;51.124;4.182;2022-12-29T00:24:18;2.00;;;1.25;;
41903;SDS011;27586;51.124;4.182;2022-12-29T00:26:58;2.58;;;1.50;;
41903;SDS011;27586;51.124;4.182;2022-12-29T00:29:53;1.27;;;1.17;;
41903;SDS011;27586;51.124;4.182;2022-12-29T00:32:41;2.50;;;1.33;;
41903;SDS011;27586;51.124;4.182;2022-12-29T00:37:54;2.45;;;1.30;;
41903;SDS011;27586;51.124;4.182;2022-12-29T00:40:40;1.45;;;1.00;;
41903;SDS011;27586;51.124;4.182;2022-12-29T00:43:24;1.20;;;1.10;;
41903;SDS011;27586;51.124;4.182;2022-12-29T00:46:12;1.63;;;0.90;;
41903;SDS011;27586;51.124;4.182;2022-12-29T00:48:37;2.80;;;1.13;;
41903;SDS011;27586;51.124;4.182;2022-12-29T00:51:21;1.95;;;1.27;;
41903;SDS011;27586;51.124;4.182;2022-12-29T00:53:48;2.90;;;1.10;;
41903;SDS011;27586;51.124;4.182;2022-12-29T00:56:14;2.88;;;1.50;;
41903;SDS011;27586;51.124;4.182;2022-12-29T00:58:39;3.22;;;1.48;;
41903;SDS011;27586;51.124;4.182;2022-12-29T01:01:06;3.28;;;1.00;;
41903;SDS011;27586;51.124;4.182;2022-12-29T01:03:33;4.30;;;1.10;;
41903;SDS011;27586;51.124;4.182;2022-12-29T01:06:00;3.50;;;1.10;;
41903;SDS011;27586;51.124;4.182;2022-12-29T01:08:27;1.40;;;0.90;;
41903;SDS011;27586;51.124;4.182;2022-12-29T01:11:00;3.13;;;1.10;;
41903;SDS011;27586;51.124;4.182;2022-12-29T01:13:27;2.80;;;1.10;;
41903;SDS011;27586;51.124;4.182;2022-12-29T01:15:53;4.28;;;1.10;;
41903;SDS011;27586;51.124;4.182;2022-12-29T01:18:19;1.80;;;0.90;;
41903;SDS011;27586;51.124;4.182;2022-12-29T01:20:45;2.40;;;1.20;;
41903;SDS011;27586;51.124;4.182;2022-12-29T01:23:14;3.63;;;1.23;;
41903;SDS011;27586;51.124;4.182;2022-12-29T01:25:40;5.18;;;1.50;;
41903;SDS011;27586;51.124;4.182;2022-12-29T01:28:05;4.63;;;1.38;;
41903;SDS011;27586;51.124;4.182;2022-12-29T01:30:33;3.50;;;1.25;;
41903;SDS011;27586;51.124;4.182;2022-12-29T01:32:59;5.22;;;1.40;;
41903;SDS011;27586;51.124;4.182;2022-12-29T01:35:26;4.95;;;1.40;;
41903;SDS011;27586;51.124;4.182;2022-12-29T01:37:52;5.10;;;1.42;;
41903;SDS011;27586;51.124;4.182;2022-12-29T01:40:20;2.78;;;1.40;;
41903;SDS011;27586;51.124;4.182;2022-12-29T01:42:46;3.83;;;1.42;;
41903;SDS011;27586;51.124;4.182;2022-12-29T01:45:15;2.83;;;1.20;;
41903;SDS011;27586;51.124;4.182;2022-12-29T01:47:43;1.70;;;1.30;;
41903;SDS011;27586;51.124;4.182;2022-12-29T01:50:35;3.20;;;1.20;;
41903;SDS011;27586;51.124;4.182;2022-12-29T01:53:04;4.88;;;1.50;;
41903;SDS011;27586;51.124;4.182;2022-12-29T01:55:53;4.68;;;1.40;;
41903;SDS011;27586;51.124;4.182;2022-12-29T01:58:23;3.33;;;1.27;;
41903;SDS011;27586;51.124;4.182;2022-12-29T02:00:53;3.72;;;1.30;;
41903;SDS011;27586;51.124;4.182;2022-12-29T02:03:19;3.20;;;1.27;;
41903;SDS011;27586;51.124;4.182;2022-12-29T02:08:31;1.88;;;1.13;;
41903;SDS011;27586;51.124;4.182;2022-12-29T02:10:58;5.15;;;1.40;;
41903;SDS011;27586;51.124;4.182;2022-12-29T02:13:25;5.50;;;1.35;;
41903;SDS011;27586;51.124;4.182;2022-12-29T02:32:25;2.88;;;1.17;;
41903;SDS011;27586;51.124;4.182;2022-12-29T02:37:41;4.68;;;1.42;;
41903;SDS011;27586;51.124;4.182;2022-12-29T02:40:36;4.85;;;1.27;;
41903;SDS011;27586;51.124;4.182;2022-12-29T02:43:33;3.13;;;1.10;;
41903;SDS011;27586;51.124;4.182;2022-12-29T02:46:08;2.40;;;1.20;;
41903;SDS011;27586;51.124;4.182;2022-12-29T02:48:46;3.88;;;1.20;;
41903;SDS011;27586;51.124;4.182;2022-12-29T02:54:25;2.67;;;1.20;;
41903;SDS011;27586;51.124;4.182;2022-12-29T02:59:56;3.03;;;1.20;;
41903;SDS011;27586;51.124;4.182;2022-12-29T03:02:36;4.22;;;1.23;;
41903;SDS011;27586;51.124;4.182;2022-12-29T03:07:58;5.80;;;1.25;;
41903;SDS011;27586;51.124;4.182;2022-12-29T03:16:23;3.78;;;1.42;;
41903;SDS011;27586;51.124;4.182;2022-12-29T03:19:05;5.72;;;1.50;;
41903;SDS011;27586;51.124;4.182;2022-12-29T03:21:56;3.75;;;1.30;;
41903;SDS011;27586;51.124;4.182;2022-12-29T03:24:50;3.65;;;1.17;;
41903;SDS011;27586;51.124;4.182;2022-12-29T03:27:30;5.47;;;1.50;;
41903;SDS011;27586;51.124;4.182;2022-12-29T03:30:00;6.35;;;1.35;;
41903;SDS011;27586;51.124;4.182;2022-12-29T03:32:31;4.07;;;1.52;;
41903;SDS011;27586;51.124;4.182;2022-12-29T03:35:00;4.40;;;1.40;;
41903;SDS011;27586;51.124;4.182;2022-12-29T03:37:31;5.95;;;1.30;;
41903;SDS011;27586;51.124;4.182;2022-12-29T03:40:03;5.90;;;1.80;;
41903;SDS011;27586;51.124;4.182;2022-12-29T03:42:30;3.83;;;1.33;;
41903;SDS011;27586;51.124;4.182;2022-12-29T03:44:58;3.38;;;1.33;;
41903;SDS011;27586;51.124;4.182;2022-12-29T03:47:24;4.35;;;1.50;;
41903;SDS011;27586;51.124;4.182;2022-12-29T03:49:51;3.30;;;1.25;;
41903;SDS011;27586;51.124;4.182;2022-12-29T03:52:17;8.13;;;1.90;;
41903;SDS011;27586;51.124;4.182;2022-12-29T03:54:43;3.75;;;1.38;;
41903;SDS011;27586;51.124;4.182;2022-12-29T03:57:09;5.97;;;1.63;;
41903;SDS011;27586;51.124;4.182;2022-12-29T03:59:35;6.18;;;1.65;;
41903;SDS011;27586;51.124;4.182;2022-12-29T04:02:01;3.95;;;1.50;;
41903;SDS011;27586;51.124;4.182;2022-12-29T04:04:26;5.50;;;1.60;;
41903;SDS011;27586;51.124;4.182;2022-12-29T04:06:52;6.38;;;1.85;;
41903;SDS011;27586;51.124;4.182;2022-12-29T04:09:18;5.18;;;1.70;;
41903;SDS011;27586;51.124;4.182;2022-12-29T04:11:44;5.80;;;1.90;;
41903;SDS011;27586;51.124;4.182;2022-12-29T04:14:09;4.43;;;1.70;;
41903;SDS011;27586;51.124;4.182;2022-12-29T04:16:35;4.63;;;1.83;;
41903;SDS011;27586;51.124;4.182;2022-12-29T04:19:03;7.07;;;1.80;;
41903;SDS011;27586;51.124;4.182;2022-12-29T04:21:29;5.32;;;1.75;;
41903;SDS011;27586;51.124;4.182;2022-12-29T04:23:56;7.40;;;1.92;;
41903;SDS011;27586;51.124;4.182;2022-12-29T04:26:21;5.28;;;1.75;;
41903;SDS011;27586;51.124;4.182;2022-12-29T04:28:50;5.97;;;1.90;;
41903;SDS011;27586;51.124;4.182;2022-12-29T04:31:15;7.25;;;2.10;;
41903;SDS011;27586;51.124;4.182;2022-12-29T04:33:44;4.90;;;1.92;;
41903;SDS011;27586;51.124;4.182;2022-12-29T04:36:10;7.50;;;2.30;;
41903;SDS011;27586;51.124;4.182;2022-12-29T04:38:35;6.70;;;2.03;;
41903;SDS011;27586;51.124;4.182;2022-12-29T04:41:02;6.10;;;1.85;;
41903;SDS011;27586;51.124;4.182;2022-12-29T04:43:30;6.30;;;1.98;;
41903;SDS011;27586;51.124;4.182;2022-12-29T04:45:56;6.00;;;1.92;;
41903;SDS011;27586;51.124;4.182;2022-12-29T04:48:22;4.50;;;1.67;;
41903;SDS011;27586;51.124;4.182;2022-12-29T04:50:48;5.80;;;1.73;;
41903;SDS011;27586;51.124;4.182;2022-12-29T04:53:14;4.68;;;1.70;;
41903;SDS011;27586;51.124;4.182;2022-12-29T04:55:41;4.53;;;1.45;;
41903;SDS011;27586;51.124;4.182;2022-12-29T04:58:07;5.00;;;1.50;;
41903;SDS011;27586;51.124;4.182;2022-12-29T05:00:33;4.05;;;1.50;;
41903;SDS011;27586;51.124;4.182;2022-12-29T05:02:59;5.43;;;1.70;;
41903;SDS011;27586;51.124;4.182;2022-12-29T05:05:25;7.00;;;1.70;;
41903;SDS011;27586;51.124;4.182;2022-12-29T05:07:50;6.22;;;1.70;;
41903;SDS011;27586;51.124;4.182;2022-12-29T05:10:16;4.40;;;1.58;;
41903;SDS011;27586;51.124;4.182;2022-12-29T05:12:42;4.50;;;1.20;;
41903;SDS011;27586;51.124;4.182;2022-12-29T05:15:09;4.68;;;1.63;;
41903;SDS011;27586;51.124;4.182;2022-12-29T05:17:35;4.75;;;1.70;;
41903;SDS011;27586;51.124;4.182;2022-12-29T05:20:02;4.50;;;1.45;;
41903;SDS011;27586;51.124;4.182;2022-12-29T05:22:29;4.80;;;1.58;;
41903;SDS011;27586;51.124;4.182;2022-12-29T05:24:55;4.65;;;1.55;;
41903;SDS011;27586;51.124;4.182;2022-12-29T05:27:24;5.10;;;1.58;;
41903;SDS011;27586;51.124;4.182;2022-12-29T05:29:49;3.38;;;1.50;;
41903;SDS011;27586;51.124;4.182;2022-12-29T05:32:15;5.85;;;1.92;;
41903;SDS011;27586;51.124;4.182;2022-12-29T05:34:41;4.07;;;1.40;;
41903;SDS011;27586;51.124;4.182;2022-12-29T05:37:06;5.15;;;1.83;;
41903;SDS011;27586;51.124;4.182;2022-12-29T05:39:32;8.68;;;1.80;;
41903;SDS011;27586;51.124;4.182;2022-12-29T05:41:57;3.75;;;1.73;;
41903;SDS011;27586;51.124;4.182;2022-12-29T05:44:23;6.60;;;1.67;;
41903;SDS011;27586;51.124;4.182;2022-12-29T05:46:49;5.20;;;1.50;;
41903;SDS011;27586;51.124;4.182;2022-12-29T05:49:17;6.43;;;1.85;;
41903;SDS011;27586;51.124;4.182;2022-12-29T05:51:43;4.57;;;1.52;;
41903;SDS011;27586;51.124;4.182;2022-12-29T05:54:08;7.85;;;1.90;;
41903;SDS011;27586;51.124;4.182;2022-12-29T05:56:34;7.03;;;2.25;;
41903;SDS011;27586;51.124;4.182;2022-12-29T05:59:00;6.95;;;1.77;;
41903;SDS011;27586;51.124;4.182;2022-12-29T06:01:26;8.95;;;2.00;;
41903;SDS011;27586;51.124;4.182;2022-12-29T06:03:51;7.25;;;1.70;;
41903;SDS011;27586;51.124;4.182;2022-12-29T06:06:17;5.97;;;1.92;;
41903;SDS011;27586;51.124;4.182;2022-12-29T06:08:43;5.65;;;1.90;;
41903;SDS011;27586;51.124;4.182;2022-12-29T06:11:09;8.88;;;2.30;;
41903;SDS011;27586;51.124;4.182;2022-12-29T06:13:34;8.02;;;2.22;;
41903;SDS011;27586;51.124;4.182;2022-12-29T06:16:00;7.70;;;2.10;;
41903;SDS011;27586;51.124;4.182;2022-12-29T06:18:26;6.50;;;1.88;;
41903;SDS011;27586;51.124;4.182;2022-12-29T06:20:51;6.40;;;1.85;;
41903;SDS011;27586;51.124;4.182;2022-12-29T06:23:17;8.20;;;2.15;;
41903;SDS011;27586;51.124;4.182;2022-12-29T06:25:43;6.55;;;2.13;;
41903;SDS011;27586;51.124;4.182;2022-12-29T06:28:09;5.30;;;2.10;;
41903;SDS011;27586;51.124;4.182;2022-12-29T06:30:35;5.75;;;2.25;;
41903;SDS011;27586;51.124;4.182;2022-12-29T06:33:01;7.75;;;2.25;;
41903;SDS011;27586;51.124;4.182;2022-12-29T06:35:27;6.80;;;2.17;;
41903;SDS011;27586;51.124;4.182;2022-12-29T06:37:53;8.18;;;2.38;;
41903;SDS011;27586;51.124;4.182;2022-12-29T06:40:19;7.35;;;2.17;;
41903;SDS011;27586;51.124;4.182;2022-12-29T06:42:46;6.38;;;2.13;;
41903;SDS011;27586;51.124;4.182;2022-12-29T06:45:12;7.00;;;2.53;;
41903;SDS011;27586;51.124;4.182;2022-12-29T06:47:37;9.40;;;2.33;;
41903;SDS011;27586;51.124;4.182;2022-12-29T06:50:03;9.32;;;2.42;;
41903;SDS011;27586;51.124;4.182;2022-12-29T06:52:29;9.48;;;2.30;;
41903;SDS011;27586;51.124;4.182;2022-12-29T06:54:55;6.72;;;2.35;;
41903;SDS011;27586;51.124;4.182;2022-12-29T06:57:20;8.82;;;2.30;;
41903;SDS011;27586;51.124;4.182;2022-12-29T06:59:46;7.97;;;2.53;;
41903;SDS011;27586;51.124;4.182;2022-12-29T07:02:12;11.07;;;2.80;;
41903;SDS011;27586;51.124;4.182;2022-12-29T07:04:43;8.60;;;2.55;;
41903;SDS011;27586;51.124;4.182;2022-12-29T07:07:08;8.20;;;2.80;;
41903;SDS011;27586;51.124;4.182;2022-12-29T07:09:34;7.43;;;2.53;;
41903;SDS011;27586;51.124;4.182;2022-12-29T07:12:00;7.97;;;2.60;;
41903;SDS011;27586;51.124;4.182;2022-12-29T07:14:25;10.15;;;2.75;;
41903;SDS011;27586;51.124;4.182;2022-12-29T07:16:54;9.27;;;3.00;;
41903;SDS011;27586;51.124;4.182;2022-12-29T07:19:20;10.82;;;2.80;;
41903;SDS011;27586;51.124;4.182;2022-12-29T07:21:46;6.43;;;2.17;;
41903;SDS011;27586;51.124;4.182;2022-12-29T07:24:11;8.80;;;2.50;;
41903;SDS011;27586;51.124;4.182;2022-12-29T07:26:37;10.02;;;3.08;;
41903;SDS011;27586;51.124;4.182;2022-12-29T07:29:03;7.68;;;2.33;;
41903;SDS011;27586;51.124;4.182;2022-12-29T07:31:29;6.95;;;2.75;;
41903;SDS011;27586;51.124;4.182;2022-12-29T07:33:54;7.43;;;2.28;;
41903;SDS011;27586;51.124;4.182;2022-12-29T07:36:20;7.50;;;2.55;;
41903;SDS011;27586;51.124;4.182;2022-12-29T07:38:46;7.47;;;2.58;;
41903;SDS011;27586;51.124;4.182;2022-12-29T07:41:11;10.75;;;2.72;;
41903;SDS011;27586;51.124;4.182;2022-12-29T07:43:37;10.63;;;2.53;;
41903;SDS011;27586;51.124;4.182;2022-12-29T07:46:03;7.00;;;2.33;;
41903;SDS011;27586;51.124;4.182;2022-12-29T07:48:29;9.13;;;2.60;;
41903;SDS011;27586;51.124;4.182;2022-12-29T07:50:54;9.95;;;2.83;;
41903;SDS011;27586;51.124;4.182;2022-12-29T07:53:20;10.40;;;2.95;;
41903;SDS011;27586;51.124;4.182;2022-12-29T07:55:46;8.98;;;2.58;;
41903;SDS011;27586;51.124;4.182;2022-12-29T07:58:11;10.55;;;2.78;;
41903;SDS011;27586;51.124;4.182;2022-12-29T08:00:37;11.57;;;2.63;;
41903;SDS011;27586;51.124;4.182;2022-12-29T08:03:04;9.90;;;2.97;;
41903;SDS011;27586;51.124;4.182;2022-12-29T08:05:30;10.32;;;2.80;;
41903;SDS011;27586;51.124;4.182;2022-12-29T08:07:57;10.88;;;2.83;;
41903;SDS011;27586;51.124;4.182;2022-12-29T08:10:23;12.90;;;2.97;;
41903;SDS011;27586;51.124;4.182;2022-12-29T08:12:48;9.10;;;2.90;;
41903;SDS011;27586;51.124;4.182;2022-12-29T08:15:14;8.35;;;2.50;;
41903;SDS011;27586;51.124;4.182;2022-12-29T08:17:40;8.85;;;2.88;;
41903;SDS011;27586;51.124;4.182;2022-12-29T08:20:06;12.27;;;2.67;;
41903;SDS011;27586;51.124;4.182;2022-12-29T08:22:32;11.30;;;3.05;;
41903;SDS011;27586;51.124;4.182;2022-12-29T08:24:58;11.38;;;3.00;;
41903;SDS011;27586;51.124;4.182;2022-12-29T08:27:23;8.02;;;2.65;;
41903;SDS011;27586;51.124;4.182;2022-12-29T08:29:50;9.73;;;2.50;;
41903;SDS011;27586;51.124;4.182;2022-12-29T08:32:16;8.07;;;2.70;;
41903;SDS011;27586;51.124;4.182;2022-12-29T08:34:41;8.38;;;2.33;;
41903;SDS011;27586;51.124;4.182;2022-12-29T08:37:07;12.43;;;3.15;;
41903;SDS011;27586;51.124;4.182;2022-12-29T08:39:33;7.13;;;2.85;;
41903;SDS011;27586;51.124;4.182;2022-12-29T08:41:59;8.23;;;2.75;;
41903;SDS011;27586;51.124;4.182;2022-12-29T08:44:25;10.48;;;2.83;;
41903;SDS011;27586;51.124;4.182;2022-12-29T08:46:50;8.05;;;2.88;;
41903;SDS011;27586;51.124;4.182;2022-12-29T08:49:16;12.20;;;3.17;;
41903;SDS011;27586;51.124;4.182;2022-12-29T08:51:41;7.90;;;2.50;;
41903;SDS011;27586;51.124;4.182;2022-12-29T08:54:07;9.93;;;2.75;;
41903;SDS011;27586;51.124;4.182;2022-12-29T08:56:33;7.10;;;2.67;;
41903;SDS011;27586;51.124;4.182;2022-12-29T08:58:58;6.72;;;2.72;;
41903;SDS011;27586;51.124;4.182;2022-12-29T09:01:24;7.32;;;2.70;;
41903;SDS011;27586;51.124;4.182;2022-12-29T09:03:50;10.48;;;3.00;;
41903;SDS011;27586;51.124;4.182;2022-12-29T09:06:16;10.50;;;3.10;;
41903;SDS011;27586;51.124;4.182;2022-12-29T09:08:43;8.15;;;2.88;;
41903;SDS011;27586;51.124;4.182;2022-12-29T09:11:16;9.85;;;3.20;;
41903;SDS011;27586;51.124;4.182;2022-12-29T09:13:44;9.32;;;3.13;;
41903;SDS011;27586;51.124;4.182;2022-12-29T09:16:10;10.85;;;2.78;;
41903;SDS011;27586;51.124;4.182;2022-12-29T09:18:39;9.40;;;3.30;;
41903;SDS011;27586;51.124;4.182;2022-12-29T09:21:06;8.10;;;2.95;;
41903;SDS011;27586;51.124;4.182;2022-12-29T09:23:32;8.60;;;3.20;;
41903;SDS011;27586;51.124;4.182;2022-12-29T09:25:59;8.70;;;3.13;;
41903;SDS011;27586;51.124;4.182;2022-12-29T09:28:25;8.15;;;3.00;;
41903;SDS011;27586;51.124;4.182;2022-12-29T09:30:51;11.45;;;3.10;;
41903;SDS011;27586;51.124;4.182;2022-12-29T09:33:20;10.25;;;3.22;;
41903;SDS011;27586;51.124;4.182;2022-12-29T09:35:50;12.07;;;3.50;;
41903;SDS011;27586;51.124;4.182;2022-12-29T09:38:22;9.30;;;2.80;;
41903;SDS011;27586;51.124;4.182;2022-12-29T09:40:50;8.32;;;2.55;;
41903;SDS011;27586;51.124;4.182;2022-12-29T09:43:24;10.75;;;3.25;;
41903;SDS011;27586;51.124;4.182;2022-12-29T09:46:24;10.40;;;3.20;;
41903;SDS011;27586;51.124;4.182;2022-12-29T09:51:50;7.13;;;2.72;;
41903;SDS011;27586;51.124;4.182;2022-12-29T09:54:38;12.68;;;3.42;;
41903;SDS011;27586;51.124;4.182;2022-12-29T09:57:26;13.63;;;3.70;;
41903;SDS011;27586;51.124;4.182;2022-12-29T09:59:59;12.82;;;4.13;;
41903;SDS011;27586;51.124;4.182;2022-12-29T10:02:38;12.73;;;3.67;;
41903;SDS011;27586;51.124;4.182;2022-12-29T10:05:18;11.95;;;3.53;;
41903;SDS011;27586;51.124;4.182;2022-12-29T10:07:56;14.85;;;4.30;;
41903;SDS011;27586;51.124;4.182;2022-12-29T10:10:37;9.88;;;3.47;;
41903;SDS011;27586;51.124;4.182;2022-12-29T10:19:04;15.13;;;3.75;;
41903;SDS011;27586;51.124;4.182;2022-12-29T10:24:44;11.60;;;3.40;;
41903;SDS011;27586;51.124;4.182;2022-12-29T10:27:13;13.77;;;3.78;;
41903;SDS011;27586;51.124;4.182;2022-12-29T10:29:59;13.55;;;3.55;;
41903;SDS011;27586;51.124;4.182;2022-12-29T10:35:01;10.30;;;3.50;;
41903;SDS011;27586;51.124;4.182;2022-12-29T10:40:29;13.48;;;3.72;;
41903;SDS011;27586;51.124;4.182;2022-12-29T10:43:07;12.25;;;3.20;;
41903;SDS011;27586;51.124;4.182;2022-12-29T10:45:49;12.82;;;3.67;;
41903;SDS011;27586;51.124;4.182;2022-12-29T10:48:19;17.15;;;4.03;;
41903;SDS011;27586;51.124;4.182;2022-12-29T10:50:48;12.77;;;3.72;;
41903;SDS011;27586;51.124;4.182;2022-12-29T10:53:19;14.82;;;3.58;;
41903;SDS011;27586;51.124;4.182;2022-12-29T10:55:50;10.95;;;3.63;;
41903;SDS011;27586;51.124;4.182;2022-12-29T10:58:17;9.70;;;3.58;;
41903;SDS011;27586;51.124;4.182;2022-12-29T11:00:48;14.50;;;3.88;;
41903;SDS011;27586;51.124;4.182;2022-12-29T11:03:27;11.80;;;3.38;;
41903;SDS011;27586;51.124;4.182;2022-12-29T11:08:37;10.57;;;2.97;;
41903;SDS011;27586;51.124;4.182;2022-12-29T11:11:11;11.93;;;3.28;;
41903;SDS011;27586;51.124;4.182;2022-12-29T11:13:46;12.80;;;3.70;;
41903;SDS011;27586;51.124;4.182;2022-12-29T11:16:14;9.90;;;3.20;;
41903;SDS011;27586;51.124;4.182;2022-12-29T11:18:40;7.43;;;2.83;;
41903;SDS011;27586;51.124;4.182;2022-12-29T11:24:28;10.88;;;2.60;;
41903;SDS011;27586;51.124;4.182;2022-12-29T11:26:54;8.73;;;2.95;;
41903;SDS011;27586;51.124;4.182;2022-12-29T11:29:39;7.50;;;2.38;;
41903;SDS011;27586;51.124;4.182;2022-12-29T11:32:20;7.85;;;3.08;;
41903;SDS011;27586;51.124;4.182;2022-12-29T11:34:51;9.23;;;2.80;;
41903;SDS011;27586;51.124;4.182;2022-12-29T11:37:18;10.43;;;2.78;;
41903;SDS011;27586;51.124;4.182;2022-12-29T11:39:48;9.50;;;2.83;;
41903;SDS011;27586;51.124;4.182;2022-12-29T11:42:36;8.38;;;2.33;;
41903;SDS011;27586;51.124;4.182;2022-12-29T11:45:21;7.55;;;2.65;;
41903;SDS011;27586;51.124;4.182;2022-12-29T11:47:50;8.63;;;2.78;;
41903;SDS011;27586;51.124;4.182;2022-12-29T11:50:24;9.23;;;2.88;;
41903;SDS011;27586;51.124;4.182;2022-12-29T11:53:03;6.47;;;1.90;;
41903;SDS011;27586;51.124;4.182;2022-12-29T11:55:38;8.27;;;2.85;;
41903;SDS011;27586;51.124;4.182;2022-12-29T11:58:04;7.88;;;2.80;;
41903;SDS011;27586;51.124;4.182;2022-12-29T12:00:32;8.57;;;2.70;;
41903;SDS011;27586;51.124;4.182;2022-12-29T12:03:03;9.02;;;2.97;;
41903;SDS011;27586;51.124;4.182;2022-12-29T12:05:56;7.63;;;3.17;;
41903;SDS011;27586;51.124;4.182;2022-12-29T12:08:45;8.48;;;2.55;;
41903;SDS011;27586;51.124;4.182;2022-12-29T12:11:26;8.80;;;2.80;;
41903;SDS011;27586;51.124;4.182;2022-12-29T12:14:23;9.57;;;2.80;;
41903;SDS011;27586;51.124;4.182;2022-12-29T12:16:52;10.38;;;3.00;;
41903;SDS011;27586;51.124;4.182;2022-12-29T12:19:56;11.40;;;2.78;;
41903;SDS011;27586;51.124;4.182;2022-12-29T12:22:30;12.23;;;3.05;;
41903;SDS011;27586;51.124;4.182;2022-12-29T12:27:50;12.98;;;3.28;;
41903;SDS011;27586;51.124;4.182;2022-12-29T12:30:43;14.88;;;3.28;;
41903;SDS011;27586;51.124;4.182;2022-12-29T12:51:42;11.52;;;3.20;;
41903;SDS011;27586;51.124;4.182;2022-12-29T13:00:01;12.20;;;2.72;;
41903;SDS011;27586;51.124;4.182;2022-12-29T13:14:34;8.13;;;4.65;;
41903;SDS011;27586;51.124;4.182;2022-12-29T13:22:57;8.63;;;2.20;;
41903;SDS011;27586;51.124;4.182;2022-12-29T13:25:40;5.78;;;1.95;;
41903;SDS011;27586;51.124;4.182;2022-12-29T13:31:20;7.47;;;2.40;;
41903;SDS011;27586;51.124;4.182;2022-12-29T13:36:44;4.18;;;1.80;;
41903;SDS011;27586;51.124;4.182;2022-12-29T13:39:18;6.32;;;2.08;;
41903;SDS011;27586;51.124;4.182;2022-12-29T13:42:02;8.75;;;2.30;;
41903;SDS011;27586;51.124;4.182;2022-12-29T13:44:40;7.57;;;2.25;;
41903;SDS011;27586;51.124;4.182;2022-12-29T13:47:30;6.65;;;2.17;;
41903;SDS011;27586;51.124;4.182;2022-12-29T13:50:26;8.13;;;2.20;;
41903;SDS011;27586;51.124;4.182;2022-12-29T14:03:44;6.70;;;1.90;;
41903;SDS011;27586;51.124;4.182;2022-12-29T14:08:53;4.57;;;2.08;;
41903;SDS011;27586;51.124;4.182;2022-12-29T14:11:31;6.30;;;2.13;;
41903;SDS011;27586;51.124;4.182;2022-12-29T14:13:59;4.95;;;1.58;;
41903;SDS011;27586;51.124;4.182;2022-12-29T14:17:08;4.90;;;1.60;;
41903;SDS011;27586;51.124;4.182;2022-12-29T14:19:36;4.07;;;1.58;;
41903;SDS011;27586;51.124;4.182;2022-12-29T14:22:08;5.15;;;1.83;;
41903;SDS011;27586;51.124;4.182;2022-12-29T14:24:40;3.80;;;1.60;;
41903;SDS011;27586;51.124;4.182;2022-12-29T14:34:49;4.40;;;1.60;;
41903;SDS011;27586;51.124;4.182;2022-12-29T14:40:14;4.32;;;1.35;;
41903;SDS011;27586;51.124;4.182;2022-12-29T14:42:44;4.85;;;1.70;;
41903;SDS011;27586;51.124;4.182;2022-12-29T14:47:45;6.07;;;1.60;;
41903;SDS011;27586;51.124;4.182;2022-12-29T14:50:13;4.20;;;1.60;;
41903;SDS011;27586;51.124;4.182;2022-12-29T14:53:04;3.30;;;1.20;;
41903;SDS011;27586;51.124;4.182;2022-12-29T14:55:41;3.90;;;1.48;;
41903;SDS011;27586;51.124;4.182;2022-12-29T14:58:31;3.35;;;1.40;;
41903;SDS011;27586;51.124;4.182;2022-12-29T15:01:14;4.30;;;1.40;;
41903;SDS011;27586;51.124;4.182;2022-12-29T15:04:06;3.17;;;1.52;;
41903;SDS011;27586;51.124;4.182;2022-12-29T15:06:44;4.22;;;1.77;;
41903;SDS011;27586;51.124;4.182;2022-12-29T15:09:24;2.97;;;1.40;;
41903;SDS011;27586;51.124;4.182;2022-12-29T15:12:22;5.95;;;2.13;;
41903;SDS011;27586;51.124;4.182;2022-12-29T15:14:53;6.07;;;3.60;;
41903;SDS011;27586;51.124;4.182;2022-12-29T15:17:24;5.72;;;2.00;;
41903;SDS011;27586;51.124;4.182;2022-12-29T15:19:58;3.95;;;2.00;;
41903;SDS011;27586;51.124;4.182;2022-12-29T15:22:44;4.45;;;1.60;;
41903;SDS011;27586;51.124;4.182;2022-12-29T15:25:16;6.78;;;2.30;;
41903;SDS011;27586;51.124;4.182;2022-12-29T15:27:43;8.38;;;2.03;;
41903;SDS011;27586;51.124;4.182;2022-12-29T15:30:15;7.07;;;2.38;;
41903;SDS011;27586;51.124;4.182;2022-12-29T15:32:45;8.82;;;2.58;;
41903;SDS011;27586;51.124;4.182;2022-12-29T15:37:57;9.88;;;2.85;;
41903;SDS011;27586;51.124;4.182;2022-12-29T15:45:43;8.52;;;2.30;;
41903;SDS011;27586;51.124;4.182;2022-12-29T15:48:18;8.20;;;2.50;;
41903;SDS011;27586;51.124;4.182;2022-12-29T15:50:46;10.20;;;3.17;;
41903;SDS011;27586;51.124;4.182;2022-12-29T15:53:19;7.75;;;2.90;;
41903;SDS011;27586;51.124;4.182;2022-12-29T15:55:54;9.05;;;3.25;;
41903;SDS011;27586;51.124;4.182;2022-12-29T15:58:24;6.22;;;2.38;;
41903;SDS011;27586;51.124;4.182;2022-12-29T16:00:55;10.30;;;2.85;;
41903;SDS011;27586;51.124;4.182;2022-12-29T16:03:27;7.32;;;2.40;;
41903;SDS011;27586;51.124;4.182;2022-12-29T16:05:57;8.35;;;2.45;;
41903;SDS011;27586;51.124;4.182;2022-12-29T16:08:43;9.20;;;2.75;;
41903;SDS011;27586;51.124;4.182;2022-12-29T16:11:27;7.20;;;2.42;;
41903;SDS011;27586;51.124;4.182;2022-12-29T16:13:57;9.13;;;2.70;;
41903;SDS011;27586;51.124;4.182;2022-12-29T16:18:53;8.30;;;2.63;;
41903;SDS011;27586;51.124;4.182;2022-12-29T16:21:21;8.05;;;2.63;;
41903;SDS011;27586;51.124;4.182;2022-12-29T16:23:50;8.45;;;2.72;;
41903;SDS011;27586;51.124;4.182;2022-12-29T16:26:18;11.00;;;3.15;;
41903;SDS011;27586;51.124;4.182;2022-12-29T16:28:47;9.73;;;2.45;;
41903;SDS011;27586;51.124;4.182;2022-12-29T16:34:11;8.77;;;2.67;;
41903;SDS011;27586;51.124;4.182;2022-12-29T16:36:58;13.02;;;3.03;;
41903;SDS011;27586;51.124;4.182;2022-12-29T16:39:49;6.97;;;2.17;;
41903;SDS011;27586;51.124;4.182;2022-12-29T16:47:47;10.05;;;2.40;;
41903;SDS011;27586;51.124;4.182;2022-12-29T16:50:16;12.27;;;2.92;;
41903;SDS011;27586;51.124;4.182;2022-12-29T16:52:50;7.22;;;2.65;;
41903;SDS011;27586;51.124;4.182;2022-12-29T16:55:16;6.97;;;2.80;;
41903;SDS011;27586;51.124;4.182;2022-12-29T16:57:44;10.02;;;3.20;;
41903;SDS011;27586;51.124;4.182;2022-12-29T17:00:20;9.77;;;2.95;;
41903;SDS011;27586;51.124;4.182;2022-12-29T17:02:48;12.25;;;3.50;;
41903;SDS011;27586;51.124;4.182;2022-12-29T17:05:16;9.60;;;3.03;;
41903;SDS011;27586;51.124;4.182;2022-12-29T17:07:43;12.48;;;3.50;;
41903;SDS011;27586;51.124;4.182;2022-12-29T17:10:09;11.57;;;3.92;;
41903;SDS011;27586;51.124;4.182;2022-12-29T17:12:35;11.48;;;3.90;;
41903;SDS011;27586;51.124;4.182;2022-12-29T17:17:46;10.20;;;3.35;;
41903;SDS011;27586;51.124;4.182;2022-12-29T17:20:18;12.80;;;3.28;;
41903;SDS011;27586;51.124;4.182;2022-12-29T17:22:44;12.52;;;4.07;;
41903;SDS011;27586;51.124;4.182;2022-12-29T17:25:14;25.33;;;14.90;;
41903;SDS011;27586;51.124;4.182;2022-12-29T17:27:51;16.67;;;4.82;;
41903;SDS011;27586;51.124;4.182;2022-12-29T17:30:43;12.23;;;4.10;;
41903;SDS011;27586;51.124;4.182;2022-12-29T17:33:11;12.82;;;4.25;;
41903;SDS011;27586;51.124;4.182;2022-12-29T17:35:39;12.13;;;3.22;;
41903;SDS011;27586;51.124;4.182;2022-12-29T17:40:53;11.50;;;3.00;;
41903;SDS011;27586;51.124;4.182;2022-12-29T17:43:19;12.52;;;3.50;;
41903;SDS011;27586;51.124;4.182;2022-12-29T17:45:55;12.55;;;3.58;;
41903;SDS011;27586;51.124;4.182;2022-12-29T17:48:22;11.88;;;3.97;;
41903;SDS011;27586;51.124;4.182;2022-12-29T17:50:49;12.60;;;3.72;;
41903;SDS011;27586;51.124;4.182;2022-12-29T17:53:26;15.65;;;4.15;;